LFGJ/DLE METAR and TAF weather

Enter ICAO airport designator
Station Type Date Time Source
LFGJ METAR 2020/01/24 21:00 UTC NOAA

LFGJ 242100Z AUTO 32002KT 2900 -RA BR SCT002 BKN072 BKN240 00/00 Q1023


Station Type Date Time Source
LFGJ Decoded METAR 2020/01/24 21:00 UTC NOAA

Dole Tavaux, France (LFGJ) 47-02-34N 005-26-06E
Jan 24, 2020 - 04:00 PM EST / 2020.01.24 2100 UTC
Wind: from the NW (320 degrees) at 2 MPH (2 KT):0
Visibility: 1 mile(s):0
Sky conditions: mostly cloudy
Weather: light rain; mist
Temperature: 32 F (0 C)
Dew Point: 32 F (0 C)
Relative Humidity: 100%
Pressure (altimeter): 30.21 in. Hg (1023 hPa)
ob: LFGJ 242100Z AUTO 32002KT 2900 -RA BR SCT002 BKN072 BKN240 00/00 Q1023
cycle: 21

Station Type Date Time Source
LFGJ TAF 2012/05/01 21:57 UTC NOAA

TAF
AMD TAF
AMD LFGJ 010355Z 3021/0106 18008KT 9999 FEW023 SCT035 BKN050
TEMPO 0102/0103 4000 -SHRA BR FEW012TCU BKN015
BECMG 0103/0104 VRB03KT 0200 FG VV///

Example: see airport list